Airfield :
LOGIN :

Register | Disclaimer

   EN    FR    IT 

 










Legend :    VFR   Marginal VFR   IFR   Intensive IFR   Very Intensive IFR
Visi :
Ceiling :
>= 8 km
>= 3000ft
5 to 8 km
1000 to 3000 ft
1500m to 5 km
500 to 1000 ft
800 to 1500m
200 to 500 ft
< 800m
< 200 ft
Symbols :   Thunderstorms  Fog  Heavy snow  Heavy precipitations  Wind > 20 kt
SIGMETs :     Misc.  Thunderstorms  Icing  Turbulence  Mountain Waves  Volcanic Ashes







- Airport Elevation : 72 ft
- IATA code : UDE


EHVK - Volkel Airbase

CURRENT METAR :
  • 161755Z AUTO 03004KT 030V090 9999 BKN230 OVC310 29/09 Q1011 BLU

EXPIRED METARs :
  • 161725Z AUTO 03006KT 350V060 9999 FEW086 OVC300 28/08 Q1011 BLU
  • 161655Z AUTO 01004KT 310V080 9999 OVC300 29/08 Q1011 BLU
  • 161625Z AUTO VRB04KT 9999 FEW088 OVC230 30/08 Q1011 BLU
  • 161555Z AUTO VRB04KT 9999 OVC240 30/08 Q1011 BLU
  • 161525Z AUTO 34004KT 290V100 9999 OVC240 30/07 Q1011 BLU

TAF TAF EHVK
Valid from the 16 at 13:00 until the 17 at 01:00 UTC


161248Z 1613/1701 03005KT CAVOK
No reported NOTAMs for that airfield.



MET'MAP, your aeronautical weather chart ! - Copyright ORBIFLY December 2007 - Disclaimer

ORBIFLY MET'MAP TEAM :

Programming & Development : Alexandra Zaïnal
Concept & Development : Baudouin d'Aumeries
Co-Development & Prog : Marc-Olivier Méhu
Technical & hardware support : Manuel Goepfert

Contact : metmap@orbifly.com




SOURCES & CREDITS :

   NOAA